createdAt,value
2023-01-21T00:00:22.698Z,2.22
2023-01-21T00:02:51.406Z,2.13
2023-01-21T00:05:21.382Z,2.27
2023-01-21T00:07:49.967Z,1.96
2023-01-21T00:10:19.842Z,2.31
2023-01-21T00:12:49.442Z,2.31
2023-01-21T00:15:19.507Z,2.33
2023-01-21T00:17:49.057Z,2.34
2023-01-21T00:20:19.387Z,1.68
2023-01-21T00:22:48.172Z,2.08
2023-01-21T00:25:17.865Z,2.13
2023-01-21T00:27:46.450Z,2.36
2023-01-21T00:30:16.276Z,2.20
2023-01-21T00:32:46.737Z,2.42
2023-01-21T00:35:15.442Z,2.13
2023-01-21T00:37:44.197Z,2.17
2023-01-21T00:40:14.986Z,2.39
2023-01-21T00:42:43.749Z,1.02
2023-01-21T00:45:12.624Z,2.41
2023-01-21T00:47:48.984Z,1.98
2023-01-21T00:50:19.685Z,2.41
2023-01-21T00:52:49.430Z,2.39
2023-01-21T00:55:18.439Z,1.93
2023-01-21T00:57:47.157Z,2.06
2023-01-21T01:00:17.140Z,2.33
2023-01-21T01:02:46.960Z,2.50
2023-01-21T01:05:19.622Z,1.85
2023-01-21T01:07:50.438Z,1.98
2023-01-21T01:10:20.087Z,2.51
2023-01-21T01:12:52.036Z,2.51
2023-01-21T01:15:20.701Z,2.24
2023-01-21T01:17:52.132Z,2.49
2023-01-21T01:20:23.177Z,2.34
2023-01-21T01:22:54.501Z,2.48
2023-01-21T01:25:24.725Z,1.74
2023-01-21T01:27:53.390Z,2.30
2023-01-21T01:30:23.071Z,2.46
2023-01-21T01:32:52.606Z,2.29
2023-01-21T01:35:24.079Z,2.23
2023-01-21T01:37:52.775Z,2.55
2023-01-21T01:40:21.808Z,2.39
2023-01-21T01:42:50.472Z,2.35
2023-01-21T01:45:22.600Z,2.48
2023-01-21T01:48:00.171Z,2.03
2023-01-21T01:50:35.876Z,2.51
2023-01-21T01:53:04.613Z,2.27
2023-01-21T01:55:36.849Z,2.39
2023-01-21T01:58:09.539Z,1.49
2023-01-21T02:00:38.320Z,2.21
2023-01-21T02:03:25.514Z,2.06
2023-01-21T02:05:56.587Z,1.95
2023-01-21T02:08:28.121Z,1.92
2023-01-21T02:10:56.877Z,1.89
2023-01-21T02:13:27.354Z,1.80
2023-01-21T02:16:09.139Z,1.87
2023-01-21T02:18:46.039Z,-0.03
2023-01-21T02:21:47.677Z,1.79
2023-01-21T02:24:54.839Z,1.66
2023-01-21T02:27:48.619Z,1.58
2023-01-21T02:30:41.554Z,0.64
2023-01-21T02:33:34.755Z,0.99
2023-01-21T02:36:31.834Z,1.57
2023-01-21T02:39:09.013Z,1.30
2023-01-21T02:41:54.128Z,1.64
2023-01-21T02:44:32.482Z,1.61
2023-01-21T02:47:08.309Z,1.64
2023-01-21T02:49:43.797Z,1.24
2023-01-21T02:52:19.130Z,0.85
2023-01-21T02:54:51.314Z,1.66
2023-01-21T02:57:37.316Z,1.96
2023-01-21T03:00:10.822Z,2.04
2023-01-21T03:03:04.539Z,1.68
2023-01-21T03:05:48.611Z,1.30
2023-01-21T03:08:23.060Z,1.97
2023-01-21T03:10:57.240Z,2.13
2023-01-21T03:13:49.870Z,-0.51
2023-01-21T03:16:42.785Z,1.68
2023-01-21T03:19:15.072Z,0.84
2023-01-21T03:21:47.644Z,2.03
2023-01-21T03:24:17.648Z,2.02
2023-01-21T03:26:50.458Z,2.05
2023-01-21T03:29:23.165Z,2.06
2023-01-21T03:31:58.411Z,1.69
2023-01-21T03:34:30.325Z,1.96
2023-01-21T03:37:06.150Z,2.22
2023-01-21T03:39:39.948Z,2.05
2023-01-21T03:42:10.089Z,2.21
2023-01-21T03:44:39.750Z,2.21
2023-01-21T03:47:19.049Z,1.91
2023-01-21T03:49:53.253Z,1.16
2023-01-21T03:52:26.836Z,2.25
2023-01-21T03:54:56.181Z,0.80
2023-01-21T03:57:24.684Z,2.25
2023-01-21T03:59:54.920Z,2.22
2023-01-21T04:02:25.473Z,2.39
2023-01-21T04:04:55.094Z,2.38
2023-01-21T04:07:28.098Z,1.64
2023-01-21T04:09:57.488Z,2.34
2023-01-21T04:12:27.503Z,2.61
2023-01-21T04:14:58.320Z,2.65
2023-01-21T04:17:28.425Z,2.70
2023-01-21T04:19:57.128Z,2.66
2023-01-21T04:22:28.183Z,2.80
2023-01-21T04:24:57.792Z,2.79
2023-01-21T04:27:26.360Z,1.38
2023-01-21T04:29:55.271Z,1.20
2023-01-21T04:32:25.917Z,2.64
2023-01-21T04:34:55.762Z,2.14
2023-01-21T04:37:24.279Z,2.60
2023-01-21T04:39:55.366Z,2.54
2023-01-21T04:42:24.012Z,2.66
2023-01-21T04:44:52.599Z,2.14
2023-01-21T04:47:21.240Z,1.28
2023-01-21T04:49:50.080Z,2.43
2023-01-21T04:52:18.945Z,2.39
2023-01-21T04:54:48.445Z,2.12
2023-01-21T04:57:18.501Z,2.46
2023-01-21T04:59:48.270Z,2.19
2023-01-21T05:02:17.884Z,2.27
2023-01-21T05:04:46.698Z,2.15
2023-01-21T05:07:16.267Z,1.10
2023-01-21T05:09:45.813Z,2.23
2023-01-21T05:12:15.682Z,2.17
2023-01-21T05:14:45.649Z,2.14
2023-01-21T05:17:14.366Z,2.14
2023-01-21T05:19:42.935Z,2.11
2023-01-21T05:22:11.890Z,2.08
2023-01-21T05:24:40.484Z,1.88
2023-01-21T05:27:09.151Z,1.04
2023-01-21T05:29:39.283Z,-0.01
2023-01-21T05:32:11.076Z,1.61
2023-01-21T05:34:40.668Z,2.10
2023-01-21T05:37:11.575Z,2.06
2023-01-21T05:39:41.194Z,2.04
2023-01-21T05:42:10.933Z,2.03
2023-01-21T05:44:51.158Z,1.71
2023-01-21T05:47:21.245Z,1.95
2023-01-21T05:49:53.923Z,1.86
2023-01-21T05:52:22.918Z,1.79
2023-01-21T05:55:01.388Z,1.81
2023-01-21T05:57:31.977Z,0.31
2023-01-21T06:00:00.975Z,1.07
2023-01-21T06:02:31.340Z,1.78
2023-01-21T06:05:00.894Z,1.75
2023-01-21T06:07:29.463Z,1.64
2023-01-21T06:09:58.556Z,1.66
2023-01-21T06:12:29.262Z,1.87
2023-01-21T06:14:57.893Z,1.80
2023-01-21T06:17:26.517Z,1.55
2023-01-21T06:19:56.990Z,1.97
2023-01-21T06:22:25.876Z,1.23
2023-01-21T06:24:54.365Z,0.79
2023-01-21T06:27:24.053Z,2.06
2023-01-21T06:29:52.703Z,0.86
2023-01-21T06:32:22.562Z,2.16
2023-01-21T06:34:51.171Z,2.17
2023-01-21T06:37:21.276Z,1.69
2023-01-21T06:39:49.912Z,2.26
2023-01-21T06:42:20.872Z,2.20
2023-01-21T06:44:51.602Z,2.33
2023-01-21T06:47:22.279Z,2.10
2023-01-21T06:49:51.809Z,1.60
2023-01-21T06:52:23.232Z,2.31
2023-01-21T06:54:52.816Z,2.29
2023-01-21T06:57:22.345Z,1.66
2023-01-21T06:59:53.004Z,2.00
2023-01-21T07:02:22.524Z,1.93
2023-01-21T07:04:53.193Z,2.13
2023-01-21T07:07:24.263Z,1.34
2023-01-21T07:09:52.948Z,1.33
2023-01-21T07:12:22.664Z,1.97
2023-01-21T07:14:51.238Z,1.92
2023-01-21T07:17:19.770Z,1.88
2023-01-21T07:19:48.489Z,1.86
2023-01-21T07:22:17.550Z,1.75
2023-01-21T07:24:47.738Z,1.89
2023-01-21T07:27:22.335Z,1.77
2023-01-21T07:29:52.166Z,1.97
2023-01-21T07:32:23.578Z,1.44
2023-01-21T07:34:52.234Z,2.00
2023-01-21T07:37:21.737Z,2.03
2023-01-21T07:39:54.406Z,2.06
2023-01-21T07:42:23.238Z,2.00
2023-01-21T07:44:51.806Z,1.96
2023-01-21T07:47:20.695Z,2.24
2023-01-21T07:49:50.492Z,2.31
2023-01-21T07:52:19.382Z,2.38
2023-01-21T07:54:49.116Z,2.38
2023-01-21T07:57:19.049Z,2.51
2023-01-21T07:59:47.808Z,2.46
2023-01-21T08:02:16.480Z,2.60
2023-01-21T08:04:45.284Z,2.56
2023-01-21T08:07:13.972Z,2.73
2023-01-21T08:09:42.976Z,2.99
2023-01-21T08:12:12.904Z,3.41
2023-01-21T08:14:42.919Z,3.84
2023-01-21T08:17:11.841Z,4.26
2023-01-21T08:19:40.388Z,4.70
2023-01-21T08:22:09.053Z,5.05
2023-01-21T08:24:37.935Z,5.36
2023-01-21T08:27:06.405Z,5.56
2023-01-21T08:29:34.893Z,4.05
2023-01-21T08:32:05.048Z,5.93
2023-01-21T08:34:35.036Z,6.09
2023-01-21T08:37:03.559Z,6.26
2023-01-21T08:39:32.174Z,6.44
2023-01-21T08:42:00.825Z,6.68
2023-01-21T08:44:29.367Z,6.60
2023-01-21T08:46:58.118Z,7.17
2023-01-21T08:49:28.560Z,7.37
2023-01-21T08:51:57.370Z,7.45
2023-01-21T08:54:26.077Z,7.51
2023-01-21T08:56:54.866Z,7.56
2023-01-21T08:59:28.891Z,7.62
2023-01-21T09:02:00.356Z,7.64
2023-01-21T09:04:30.337Z,7.65
2023-01-21T09:06:58.869Z,7.64
2023-01-21T09:09:27.810Z,7.67
2023-01-21T09:11:56.260Z,7.74
2023-01-21T09:14:24.848Z,7.28
2023-01-21T09:16:55.941Z,7.79
2023-01-21T09:19:25.263Z,7.77
2023-01-21T09:21:55.793Z,7.68
2023-01-21T09:24:25.240Z,7.51
2023-01-21T09:26:53.752Z,7.37
2023-01-21T09:29:22.285Z,7.32
2023-01-21T09:31:51.013Z,7.19
2023-01-21T09:34:19.945Z,6.97
2023-01-21T09:36:48.775Z,7.16
2023-01-21T09:39:18.738Z,7.18
2023-01-21T09:41:51.640Z,7.16
2023-01-21T09:44:26.247Z,7.20
2023-01-21T09:46:59.791Z,7.22
2023-01-21T09:49:32.423Z,7.17
2023-01-21T09:52:07.106Z,7.15
2023-01-21T09:54:39.792Z,7.15
2023-01-21T09:57:32.916Z,7.15
2023-01-21T10:00:16.529Z,7.13
2023-01-21T10:02:54.875Z,7.29
2023-01-21T10:06:09.625Z,7.33
2023-01-21T10:08:51.027Z,7.36
2023-01-21T10:11:35.871Z,7.07
2023-01-21T10:14:21.442Z,6.11
2023-01-21T10:17:01.484Z,7.38
2023-01-21T10:19:36.276Z,7.48
2023-01-21T10:22:11.820Z,7.55
2023-01-21T10:24:46.477Z,7.52
2023-01-21T10:27:21.774Z,7.19
2023-01-21T10:29:55.679Z,7.70
2023-01-21T10:32:28.706Z,7.53
2023-01-21T10:34:59.141Z,7.73
2023-01-21T10:37:35.007Z,7.77
2023-01-21T10:40:12.679Z,7.79
2023-01-21T10:42:55.601Z,7.91
2023-01-21T10:45:35.039Z,6.85
2023-01-21T10:48:12.339Z,7.66
2023-01-21T10:50:49.593Z,8.04
2023-01-21T10:53:25.996Z,7.96
2023-01-21T10:56:07.840Z,8.12
2023-01-21T10:58:42.714Z,8.18
2023-01-21T11:01:20.428Z,7.47
2023-01-21T11:03:51.750Z,8.23
2023-01-21T11:06:24.627Z,8.28
2023-01-21T11:08:58.644Z,8.29
2023-01-21T11:11:32.211Z,8.28
2023-01-21T11:14:02.543Z,8.16
2023-01-21T11:16:52.838Z,8.35
2023-01-21T11:19:25.444Z,8.23
2023-01-21T11:22:04.403Z,8.31
2023-01-21T11:24:42.627Z,8.35
2023-01-21T11:27:20.383Z,8.36
2023-01-21T11:29:51.877Z,8.39
2023-01-21T11:32:22.820Z,8.45
2023-01-21T11:34:53.589Z,8.13
2023-01-21T11:37:25.579Z,8.43
2023-01-21T11:39:57.554Z,8.46
2023-01-21T11:42:27.089Z,8.37
2023-01-21T11:44:58.873Z,8.53
2023-01-21T11:47:39.357Z,8.46
2023-01-21T11:50:15.901Z,8.72
2023-01-21T11:52:44.785Z,8.29
2023-01-21T11:55:22.087Z,8.72
2023-01-21T11:57:53.365Z,8.56
2023-01-21T12:00:25.658Z,8.53
2023-01-21T12:02:57.623Z,8.59
2023-01-21T12:05:35.813Z,8.27
2023-01-21T12:08:06.962Z,8.70
2023-01-21T12:10:40.018Z,8.64
2023-01-21T12:13:17.983Z,8.62
2023-01-21T12:16:28.168Z,8.61
2023-01-21T12:19:30.630Z,8.48
2023-01-21T12:22:31.916Z,8.52
2023-01-21T12:25:20.068Z,8.49
2023-01-21T12:28:00.691Z,8.37
2023-01-21T12:30:38.571Z,8.37
2023-01-21T12:33:14.753Z,8.20
2023-01-21T12:35:49.023Z,8.27
2023-01-21T12:38:21.281Z,8.13
2023-01-21T12:40:56.122Z,8.08
2023-01-21T12:43:29.621Z,7.83
2023-01-21T12:46:05.560Z,7.89
2023-01-21T12:55:28.173Z,8.48
2023-01-21T12:58:02.790Z,8.16
2023-01-21T13:00:34.521Z,8.48
2023-01-21T13:03:17.648Z,8.50
2023-01-21T13:05:54.018Z,8.46
2023-01-21T13:08:36.043Z,8.57
2023-01-21T13:11:15.672Z,8.66
2023-01-21T13:13:51.809Z,8.59
2023-01-21T13:16:21.012Z,7.86
2023-01-21T13:18:53.694Z,8.43
2023-01-21T13:21:31.623Z,8.33
2023-01-21T13:24:07.548Z,7.76
2023-01-21T13:26:46.988Z,8.18
2023-01-21T13:29:22.630Z,8.09
2023-01-21T13:31:57.819Z,8.00
2023-01-21T13:34:34.017Z,8.08
2023-01-21T13:37:14.716Z,8.04
2023-01-21T13:39:49.169Z,8.02
2023-01-21T13:42:31.436Z,7.59
2023-01-21T13:45:21.943Z,8.11
2023-01-21T13:48:08.233Z,8.14
2023-01-21T13:50:54.500Z,8.22
2023-01-21T13:53:40.070Z,8.13
2023-01-21T13:56:33.207Z,8.07
2023-01-21T13:59:09.238Z,8.06
2023-01-21T14:01:44.870Z,7.48
2023-01-21T14:04:19.531Z,7.84
2023-01-21T14:06:53.182Z,8.00
2023-01-21T14:09:27.194Z,7.48
2023-01-21T14:12:01.061Z,8.06
2023-01-21T14:14:59.453Z,8.10
2023-01-21T14:17:48.555Z,8.13
2023-01-21T14:20:46.058Z,7.85
2023-01-21T14:23:42.401Z,7.99
2023-01-21T14:26:47.480Z,7.48
2023-01-21T14:29:28.532Z,7.87
2023-01-21T14:32:11.652Z,7.84
2023-01-21T14:34:48.503Z,7.85
2023-01-21T14:37:25.231Z,7.78
2023-01-21T14:40:04.955Z,7.83
2023-01-21T14:42:45.355Z,7.78
2023-01-21T14:45:15.651Z,7.75
2023-01-21T14:47:53.672Z,7.69
2023-01-21T14:50:45.430Z,7.70
2023-01-21T14:53:19.928Z,7.69
2023-01-21T14:56:07.302Z,7.64
2023-01-21T14:58:37.461Z,7.64
2023-01-21T15:01:08.371Z,7.70
2023-01-21T15:03:50.338Z,7.20
2023-01-21T15:06:23.008Z,7.50
2023-01-21T15:08:53.861Z,7.57
2023-01-21T15:11:28.677Z,7.52
2023-01-21T15:14:07.694Z,7.52
2023-01-21T15:16:38.225Z,7.37
2023-01-21T15:19:20.756Z,7.38
2023-01-21T15:22:30.061Z,7.22
2023-01-21T15:25:20.095Z,7.12
2023-01-21T15:28:36.874Z,7.04
2023-01-21T15:31:09.430Z,6.68
2023-01-21T15:33:50.952Z,6.91
2023-01-21T15:36:27.379Z,6.67
2023-01-21T15:39:02.023Z,6.68
2023-01-21T15:41:43.667Z,6.65
2023-01-21T15:44:32.961Z,6.56
2023-01-21T15:47:07.521Z,6.46
2023-01-21T15:49:49.571Z,6.39
2023-01-21T15:52:34.802Z,6.33
2023-01-21T15:55:22.785Z,5.99
2023-01-21T15:58:00.716Z,6.22
2023-01-21T16:00:35.275Z,5.49
2023-01-21T16:03:18.865Z,6.14
2023-01-21T16:05:58.821Z,5.16
2023-01-21T16:08:47.371Z,6.13
2023-01-21T16:11:34.359Z,5.71
2023-01-21T16:14:16.264Z,5.90
2023-01-21T16:16:57.556Z,6.06
2023-01-21T16:19:30.044Z,4.89
2023-01-21T16:22:02.560Z,5.11
2023-01-21T16:24:35.694Z,5.99
2023-01-21T16:27:18.651Z,5.78
2023-01-21T16:29:48.343Z,5.23
2023-01-21T16:32:21.009Z,5.67
2023-01-21T16:34:49.896Z,5.61
2023-01-21T16:37:21.534Z,5.84
2023-01-21T16:39:56.091Z,5.83
2023-01-21T16:42:30.446Z,5.76
2023-01-21T16:45:00.184Z,5.72
2023-01-21T16:47:36.132Z,5.66
2023-01-21T16:50:05.724Z,5.60
2023-01-21T16:52:34.850Z,5.48
2023-01-21T16:55:19.109Z,4.73
2023-01-21T16:57:50.862Z,5.51
2023-01-21T17:00:24.595Z,5.52
2023-01-21T17:02:55.083Z,5.50
2023-01-21T17:05:25.901Z,5.34
2023-01-21T17:07:58.838Z,5.47
2023-01-21T17:10:35.555Z,4.87
2023-01-21T17:13:07.371Z,4.63
2023-01-21T17:15:38.916Z,5.35
2023-01-21T17:18:09.969Z,5.33
2023-01-21T17:20:46.186Z,4.53
2023-01-21T17:23:19.605Z,3.82
2023-01-21T17:25:55.079Z,5.24
2023-01-21T17:28:31.198Z,5.77
2023-01-21T17:31:30.040Z,5.25
2023-01-21T17:34:21.889Z,5.09
2023-01-21T17:36:52.549Z,5.04
2023-01-21T17:40:01.009Z,4.99
2023-01-21T17:42:39.111Z,4.84
2023-01-21T17:45:08.773Z,4.68
2023-01-21T17:48:03.233Z,4.74
2023-01-21T17:50:30.263Z,3.85
2023-01-21T17:53:02.622Z,4.69
2023-01-21T17:55:33.722Z,4.64
2023-01-21T17:58:05.954Z,4.62
2023-01-21T18:00:42.867Z,2.86
2023-01-21T18:03:12.344Z,4.56
2023-01-21T18:05:43.431Z,4.51
2023-01-21T18:08:14.872Z,4.51
2023-01-21T18:10:44.023Z,3.96
2023-01-21T18:13:14.691Z,4.38
2023-01-21T18:15:44.853Z,3.92
2023-01-21T18:18:18.570Z,2.72
2023-01-21T18:20:47.596Z,4.34
2023-01-21T18:23:18.524Z,4.23
2023-01-21T18:25:50.084Z,3.02
2023-01-21T18:28:22.654Z,4.26
2023-01-21T18:30:52.177Z,4.23
2023-01-21T18:33:21.203Z,4.18
2023-01-21T18:35:57.985Z,3.84
2023-01-21T18:38:31.183Z,3.58
2023-01-21T18:41:02.276Z,4.11
2023-01-21T18:43:32.693Z,4.14
2023-01-21T18:46:01.361Z,4.07
2023-01-21T18:48:33.441Z,4.07
2023-01-21T18:51:02.506Z,3.79
2023-01-21T18:53:32.367Z,4.03
2023-01-21T18:56:01.276Z,3.97
2023-01-21T18:58:31.678Z,3.92
2023-01-21T19:01:01.498Z,3.90
2023-01-21T19:03:34.330Z,3.89
2023-01-21T19:06:03.181Z,3.83
2023-01-21T19:08:31.869Z,3.01
2023-01-21T19:11:00.435Z,3.45
2023-01-21T19:13:28.970Z,3.76
2023-01-21T19:15:59.461Z,3.73
2023-01-21T19:18:28.210Z,3.43
2023-01-21T19:20:56.773Z,3.28
2023-01-21T19:23:25.388Z,3.58
2023-01-21T19:25:57.925Z,3.65
2023-01-21T19:28:26.948Z,3.62
2023-01-21T19:30:56.649Z,3.61
2023-01-21T19:33:27.260Z,3.63
2023-01-21T19:36:00.906Z,3.65
2023-01-21T19:38:30.181Z,3.04
2023-01-21T19:40:59.689Z,3.56
2023-01-21T19:43:28.366Z,3.39
2023-01-21T19:45:59.648Z,2.99
2023-01-21T19:48:30.486Z,3.43
2023-01-21T19:50:59.114Z,2.96
2023-01-21T19:53:27.783Z,2.21
2023-01-21T19:55:56.875Z,3.48
2023-01-21T19:58:29.372Z,3.49
2023-01-21T20:00:58.186Z,3.19
2023-01-21T20:03:30.282Z,3.56
2023-01-21T20:06:03.341Z,3.49
2023-01-21T20:08:33.249Z,3.46
2023-01-21T20:11:01.787Z,2.97
2023-01-21T20:13:32.409Z,3.29
2023-01-21T20:16:03.913Z,3.57
2023-01-21T20:18:33.838Z,3.38
2023-01-21T20:21:03.883Z,3.30
2023-01-21T20:23:33.121Z,1.99
2023-01-21T20:26:02.270Z,3.48
2023-01-21T20:28:38.747Z,3.50
2023-01-21T20:31:08.314Z,3.50
2023-01-21T20:33:37.295Z,3.51
2023-01-21T20:36:15.816Z,2.46
2023-01-21T20:38:44.740Z,2.99
2023-01-21T20:41:14.603Z,3.43
2023-01-21T20:43:43.602Z,3.37
2023-01-21T20:46:17.034Z,3.35
2023-01-21T20:48:46.128Z,3.22
2023-01-21T20:51:16.194Z,3.28
2023-01-21T20:53:44.876Z,3.27
2023-01-21T20:56:22.372Z,3.27
2023-01-21T20:58:51.108Z,3.23
2023-01-21T21:01:21.603Z,3.17
2023-01-21T21:03:51.067Z,3.04
2023-01-21T21:06:24.190Z,3.19
2023-01-21T21:08:53.969Z,3.17
2023-01-21T21:11:23.713Z,2.96
2023-01-21T21:13:53.049Z,2.95
2023-01-21T21:16:24.759Z,3.12
2023-01-21T21:18:53.676Z,2.55
2023-01-21T21:21:24.159Z,2.98
2023-01-21T21:23:53.487Z,2.90
2023-01-21T21:26:24.892Z,2.21
2023-01-21T21:28:56.003Z,2.70
2023-01-21T21:31:25.918Z,2.93
2023-01-21T21:33:55.615Z,2.73
2023-01-21T21:36:25.840Z,2.87
2023-01-21T21:38:55.934Z,2.84
2023-01-21T21:41:44.035Z,2.80
2023-01-21T21:44:13.325Z,2.77
2023-01-21T21:47:00.290Z,2.34
2023-01-21T21:49:30.915Z,2.76
2023-01-21T21:52:01.232Z,2.78
2023-01-21T21:54:29.754Z,2.78
2023-01-21T21:56:58.843Z,1.90
2023-01-21T21:59:27.849Z,2.73
2023-01-21T22:01:57.065Z,2.69
2023-01-21T22:04:27.173Z,2.22
2023-01-21T22:06:56.798Z,2.53
2023-01-21T22:09:26.732Z,2.50
2023-01-21T22:11:55.398Z,1.13
2023-01-21T22:14:24.201Z,2.78
2023-01-21T22:16:54.093Z,0.99
2023-01-21T22:19:22.754Z,2.70
2023-01-21T22:21:51.816Z,2.71
2023-01-21T22:24:20.543Z,2.63
2023-01-21T22:26:50.549Z,2.70
2023-01-21T22:29:20.117Z,1.97
2023-01-21T22:31:49.819Z,2.74
2023-01-21T22:34:18.555Z,1.90
2023-01-21T22:36:48.347Z,2.30
2023-01-21T22:39:17.186Z,2.64
2023-01-21T22:41:45.911Z,2.66
2023-01-21T22:44:15.951Z,1.14
2023-01-21T22:46:45.880Z,2.46
2023-01-21T22:49:14.460Z,2.60
2023-01-21T22:51:43.039Z,2.05
2023-01-21T22:54:11.893Z,2.48
2023-01-21T22:56:52.100Z,2.45
2023-01-21T22:59:22.770Z,1.04
2023-01-21T23:01:51.725Z,2.43
2023-01-21T23:04:20.309Z,2.46
2023-01-21T23:06:51.334Z,2.41
2023-01-21T23:09:19.871Z,2.45
2023-01-21T23:11:48.375Z,2.43
2023-01-21T23:14:17.976Z,2.46
2023-01-21T23:16:48.026Z,2.54
2023-01-21T23:19:16.681Z,2.60
2023-01-21T23:21:45.191Z,2.53
2023-01-21T23:24:14.195Z,2.61
2023-01-21T23:26:42.762Z,1.91
2023-01-21T23:34:31.112Z,2.64
2023-01-21T23:37:01.084Z,2.70
2023-01-21T23:39:29.819Z,2.78
2023-01-21T23:41:58.298Z,2.83
2023-01-21T23:44:26.990Z,2.82
2023-01-21T23:46:55.745Z,1.89
2023-01-21T23:49:25.513Z,2.63
2023-01-21T23:51:54.811Z,2.38
2023-01-21T23:54:24.868Z,2.82
2023-01-21T23:56:53.480Z,2.41
2023-01-21T23:59:22.599Z,2.82
